^^
Your Local Weather - Clay, NY Station Historical Data
Daily Summary for March 31, 2017 Units:  Metric    English   Both
« Previous Day
Next Day »
Daily Weekly Monthly Yearly Custom
  High: Low: Average:
Temperature: 3.1 °C 0.2 °C 1.7 °C
Dew Point: 1.9 °C -0.9 °C 0.5 °C
Humidity: 92% 91% 92%
Wind Speed: 11.3km/h 4.8km/h 7.7km/h
Wind Gust: 22.5km/h - -
Wind- - East
Pressure: 1018.2 hPa 1007 hPa -
Precipitation: 28.96 mm    
Historical Graphs
 
 
Tabular Data for March 31, 2017
Time Temperature Dew Point Pressure Wind Wind Speed Wind Gust Humidity Rainfall Rate (Hourly) solar
00:02 0.2 °C -0.9 °C 1018.2 hPa ENE 6.4 km/h 6.4 km/h 92% 0 mm 0 W/m2
00:08 0.2 °C -0.9 °C 1018.2 hPa NE 4.8 km/h 6.4 km/h 92% 0 mm 0 W/m2
00:14 0.3 °C -0.9 °C 1018.2 hPa NE 4.8 km/h 8 km/h 92% 0 mm 0 W/m2
00:20 0.3 °C -0.9 °C 1017.5 hPa ENE 6.4 km/h 11.3 km/h 92% 0 mm 0 W/m2
00:26 0.3 °C -0.9 °C 1017.5 hPa East 6.4 km/h 11.3 km/h 92% 0 mm 0 W/m2
00:32 0.4 °C -0.8 °C 1017.5 hPa East 6.4 km/h 8 km/h 92% 0 mm 0 W/m2
00:38 0.4 °C -0.7 °C 1017.2 hPa East 8 km/h 8 km/h 92% 0 mm 0 W/m2
00:44 0.4 °C -0.7 °C 1016.8 hPa ESE 8 km/h 8 km/h 92% 0 mm 0 W/m2
00:50 0.4 °C -0.7 °C 1016.5 hPa ESE 8 km/h 8 km/h 92% 0 mm 0 W/m2
00:56 0.4 °C -0.7 °C 1016.5 hPa ENE 8 km/h 14.5 km/h 92% 0 mm 0 W/m2
01:02 0.5 °C -0.7 °C 1016.1 hPa ENE 8 km/h 8 km/h 92% 0 mm 0 W/m2
01:08 0.5 °C -0.7 °C 1015.8 hPa East 8 km/h 8 km/h 92% 0 mm 0 W/m2
01:14 0.6 °C -0.6 °C 1015.8 hPa ENE 9.7 km/h 9.7 km/h 92% 0 mm 0 W/m2
01:20 0.6 °C -0.6 °C 1015.5 hPa ESE 8 km/h 8 km/h 92% 0 mm 0 W/m2
01:26 0.6 °C -0.6 °C 1015.5 hPa ENE 6.4 km/h 14.5 km/h 92% 1.02 mm 0 W/m2
01:32 0.7 °C -0.5 °C 1015.1 hPa ENE 8 km/h 11.3 km/h 92% 1.02 mm 0 W/m2
01:38 0.7 °C -0.4 °C 1015.5 hPa East 8 km/h 11.3 km/h 92% 0 mm 0 W/m2
01:44 0.7 °C -0.4 °C 1015.5 hPa ENE 8 km/h 14.5 km/h 92% 0 mm 0 W/m2
01:50 0.8 °C -0.4 °C 1015.5 hPa ENE 8 km/h 8 km/h 92% 0 mm 0 W/m2
01:56 0.8 °C -0.4 °C 1015.5 hPa ESE 6.4 km/h 14.5 km/h 91% 0 mm 0 W/m2
02:02 0.8 °C -0.4 °C 1015.1 hPa East 6.4 km/h 9.7 km/h 91% 1.02 mm 0 W/m2
02:08 0.9 °C -0.4 °C 1015.1 hPa South 8 km/h 9.7 km/h 91% 1.02 mm 0 W/m2
02:14 0.8 °C -0.4 °C 1014.8 hPa East 6.4 km/h 8 km/h 91% 1.27 mm 0 W/m2
02:20 0.9 °C -0.4 °C 1014.8 hPa ENE 6.4 km/h 6.4 km/h 91% 2.29 mm 0 W/m2
02:26 0.9 °C -0.4 °C 1014.8 hPa SE 8 km/h 8 km/h 91% 2.29 mm 0 W/m2
02:32 0.9 °C -0.4 °C 1014.4 hPa ESE 6.4 km/h 11.3 km/h 91% 1.27 mm 0 W/m2
02:38 0.9 °C -0.4 °C 1014.4 hPa ENE 6.4 km/h 11.3 km/h 91% 1.27 mm 0 W/m2
02:44 0.9 °C -0.4 °C 1014.1 hPa East 4.8 km/h 12.9 km/h 91% 1.27 mm 0 W/m2
02:50 0.9 °C -0.3 °C 1014.4 hPa ENE 6.4 km/h 6.4 km/h 91% 1.02 mm 0 W/m2
02:56 0.9 °C -0.3 °C 1014.1 hPa ESE 6.4 km/h 8 km/h 91% 1.02 mm 0 W/m2
03:02 0.9 °C -0.3 °C 1013.8 hPa East 8 km/h 11.3 km/h 91% 1.02 mm 0 W/m2
03:08 0.9 °C -0.3 °C 1013.8 hPa ESE 8 km/h 11.3 km/h 91% 0 mm 0 W/m2
03:14 0.9 °C -0.3 °C 1013.8 hPa SE 8 km/h 9.7 km/h 91% 0 mm 0 W/m2
03:20 1 °C -0.3 °C 1013.8 hPa ENE 6.4 km/h 6.4 km/h 91% 0 mm 0 W/m2
03:26 1.1 °C -0.2 °C 1014.1 hPa East 6.4 km/h 6.4 km/h 91% 0 mm 0 W/m2
03:32 1 °C -0.3 °C 1013.8 hPa East 6.4 km/h 11.3 km/h 91% 2.79 mm 0 W/m2
03:38 0.9 °C -0.4 °C 1013.8 hPa ESE 8 km/h 11.3 km/h 91% 4.32 mm 0 W/m2
03:44 0.9 °C -0.4 °C 1014.1 hPa ENE 6.4 km/h 6.4 km/h 91% 4.06 mm 0 W/m2
03:50 0.8 °C -0.4 °C 1014.4 hPa ENE 4.8 km/h 4.8 km/h 91% 3.81 mm 0 W/m2
03:56 0.8 °C -0.4 °C 1014.4 hPa NE 6.4 km/h 11.3 km/h 91% 5.84 mm 0 W/m2
04:02 0.7 °C -0.6 °C 1014.1 hPa East 6.4 km/h 12.9 km/h 91% 4.06 mm 0 W/m2
04:08 0.7 °C -0.6 °C 1014.1 hPa East 8 km/h 12.9 km/h 91% 3.05 mm 0 W/m2
04:14 0.6 °C -0.7 °C 1013.8 hPa East 8 km/h 12.9 km/h 91% 3.3 mm 0 W/m2
04:20 0.6 °C -0.7 °C 1013.8 hPa ENE 6.4 km/h 17.7 km/h 91% 3.56 mm 0 W/m2
04:26 0.6 °C -0.6 °C 1013.4 hPa NNE 8 km/h 17.7 km/h 92% 2.54 mm 0 W/m2
04:32 0.6 °C -0.6 °C 1013.4 hPa East 8 km/h 16.1 km/h 92% 2.29 mm 0 W/m2
04:38 0.7 °C -0.5 °C 1013.1 hPa ESE 9.7 km/h 16.1 km/h 92% 2.54 mm 0 W/m2
04:44 0.7 °C -0.5 °C 1013.4 hPa ESE 9.7 km/h 9.7 km/h 92% 1.27 mm 0 W/m2
04:50 0.7 °C -0.5 °C 1013.4 hPa ENE 8 km/h 11.3 km/h 92% 1.02 mm 0 W/m2
04:56 0.7 °C -0.5 °C 1013.4 hPa East 8 km/h 22.5 km/h 92% 1.02 mm 0 W/m2
05:02 0.6 °C -0.6 °C 1013.1 hPa East 8 km/h 11.3 km/h 92% 1.02 mm 0 W/m2
05:08 0.6 °C -0.6 °C 1013.1 hPa ESE 9.7 km/h 17.7 km/h 92% 0 mm 0 W/m2
05:14 0.6 °C -0.6 °C 1013.1 hPa ESE 9.7 km/h 14.5 km/h 92% 0 mm 0 W/m2
05:20 0.6 °C -0.6 °C 1013.1 hPa ENE 9.7 km/h 9.7 km/h 92% 2.03 mm 0 W/m2
05:26 0.6 °C -0.6 °C 1013.1 hPa ENE 8 km/h 16.1 km/h 92% 3.56 mm 0 W/m2
05:32 0.6 °C -0.6 °C 1013.1 hPa East 9.7 km/h 17.7 km/h 92% 2.29 mm 0 W/m2
05:38 0.6 °C -0.6 °C 1012.8 hPa ENE 11.3 km/h 17.7 km/h 92% 2.79 mm 0 W/m2
05:44 0.6 °C -0.6 °C 1012.8 hPa East 11.3 km/h 20.9 km/h 92% 2.54 mm 0 W/m2
05:50 0.6 °C -0.6 °C 1012.8 hPa East 9.7 km/h 14.5 km/h 92% 2.79 mm 0 W/m2
05:56 0.6 °C -0.6 °C 1012.8 hPa SE 8 km/h 14.5 km/h 92% 1.52 mm 0 W/m2
06:02 0.6 °C -0.6 °C 1012.8 hPa East 9.7 km/h 17.7 km/h 92% 1.52 mm 0 W/m2
06:08 0.6 °C -0.6 °C 1012.8 hPa East 9.7 km/h 17.7 km/h 92% 1.52 mm 0 W/m2
06:14 0.6 °C -0.6 °C 1012.8 hPa ESE 8 km/h 11.3 km/h 92% 1.52 mm 0 W/m2
06:20 0.6 °C -0.6 °C 1012.8 hPa ENE 9.7 km/h 14.5 km/h 92% 1.52 mm 0 W/m2
06:26 0.6 °C -0.6 °C 1012.8 hPa East 11.3 km/h 22.5 km/h 92% 2.03 mm 0 W/m2
06:32 0.6 °C -0.6 °C 1012.4 hPa East 11.3 km/h 11.3 km/h 92% 1.52 mm 0 W/m2
06:38 0.6 °C -0.6 °C 1012.4 hPa ENE 9.7 km/h 11.3 km/h 92% 1.02 mm 0 W/m2
06:44 0.6 °C -0.6 °C 1012.4 hPa East 9.7 km/h 19.3 km/h 92% 0 mm 0 W/m2
06:50 0.7 °C -0.5 °C 1012.4 hPa NE 9.7 km/h 9.7 km/h 92% 1.78 mm 0 W/m2
06:56 0.7 °C -0.5 °C 1012.4 hPa East 8 km/h 12.9 km/h 92% 1.78 mm 0 W/m2
07:02 0.7 °C -0.4 °C 1012.4 hPa East 8 km/h 8 km/h 92% 1.27 mm 0 W/m2
07:08 0.8 °C -0.4 °C 1012.4 hPa East 8 km/h 9.7 km/h 92% 1.27 mm 0 W/m2
07:14 0.8 °C -0.4 °C 1012.4 hPa ENE 8 km/h 11.3 km/h 92% 1.27 mm 0 W/m2
07:20 0.8 °C -0.4 °C 1012.4 hPa ESE 8 km/h 8 km/h 92% 1.27 mm 0 W/m2
07:26 0.8 °C -0.3 °C 1012.4 hPa East 8 km/h 9.7 km/h 92% 1.02 mm 0 W/m2
07:32 0.8 °C -0.3 °C 1012.1 hPa ENE 9.7 km/h 12.9 km/h 92% 0 mm 0 W/m2
07:38 0.8 °C -0.3 °C 1012.1 hPa NE 8 km/h 12.9 km/h 92% 0 mm 11 W/m2
07:44 0.9 °C -0.3 °C 1012.1 hPa ESE 8 km/h 8 km/h 92% 0 mm 14 W/m2
07:50 0.9 °C -0.3 °C 1011.7 hPa East 9.7 km/h 14.5 km/h 92% 0 mm 18 W/m2
07:56 0.9 °C -0.2 °C 1011.7 hPa East 11.3 km/h 16.1 km/h 92% 0 mm 18 W/m2
08:02 1 °C -0.2 °C 1012.1 hPa East 9.7 km/h 16.1 km/h 92% 0 mm 16 W/m2
08:08 1.1 °C -0.1 °C 1012.1 hPa ENE 8 km/h 16.1 km/h 92% 0 mm 16 W/m2
08:14 1.1 °C -0.1 °C 1012.1 hPa ESE 8 km/h 8 km/h 92% 0 mm 16 W/m2
08:20 1.1 °C -0.1 °C 1012.1 hPa ENE 8 km/h 12.9 km/h 92% 0 mm 16 W/m2
08:26 1.1 °C -0.1 °C 1011.7 hPa East 6.4 km/h 12.9 km/h 92% 0 mm 14 W/m2
08:32 1.1 °C -0.1 °C 1011.7 hPa SE 4.8 km/h 6.4 km/h 92% 0 mm 19 W/m2
08:38 1.2 °C 0 °C 1011.7 hPa ENE 6.4 km/h 17.7 km/h 92% 0 mm 14 W/m2
08:44 1.2 °C 0.1 °C 1011.7 hPa ENE 9.7 km/h 9.7 km/h 92% 0 mm 12 W/m2
08:50 1.2 °C 0.1 °C 1011.7 hPa East 8 km/h 14.5 km/h 92% 0 mm 11 W/m2
08:56 1.3 °C 0 °C 1011.7 hPa East 9.7 km/h 14.5 km/h 91% 0 mm 11 W/m2
09:02 1.3 °C 0 °C 1011.7 hPa East 8 km/h 11.3 km/h 91% 0 mm 12 W/m2
09:08 1.3 °C 0 °C 1011.7 hPa ENE 8 km/h 11.3 km/h 91% 0 mm 12 W/m2
09:14 1.4 °C 0.1 °C 1011.7 hPa East 6.4 km/h 9.7 km/h 91% 0 mm 21 W/m2
09:20 1.4 °C 0.1 °C 1011.7 hPa ESE 8 km/h 8 km/h 91% 3.05 mm 23 W/m2
09:26 1.4 °C 0.1 °C 1011.7 hPa East 6.4 km/h 9.7 km/h 91% 2.79 mm 26 W/m2
09:32 1.4 °C 0.3 °C 1011.7 hPa East 6.4 km/h 8 km/h 92% 2.03 mm 32 W/m2
09:38 1.5 °C 0.3 °C 1011.7 hPa ENE 6.4 km/h 14.5 km/h 92% 1.02 mm 30 W/m2
09:44 1.5 °C 0.3 °C 1011.7 hPa East 6.4 km/h 11.3 km/h 92% 1.02 mm 33 W/m2
09:50 1.6 °C 0.4 °C 1011.7 hPa ENE 6.4 km/h 6.4 km/h 92% 1.78 mm 33 W/m2
09:56 1.6 °C 0.4 °C 1011.7 hPa SE 8 km/h 12.9 km/h 92% 1.78 mm 39 W/m2
10:02 1.6 °C 0.4 °C 1011.7 hPa SE 6.4 km/h 6.4 km/h 92% 1.52 mm 40 W/m2
10:08 1.6 °C 0.4 °C 1011.7 hPa East 8 km/h 8 km/h 92% 2.03 mm 46 W/m2
10:14 1.7 °C 0.5 °C 1011.4 hPa East 8 km/h 11.3 km/h 92% 3.3 mm 46 W/m2
10:20 1.7 °C 0.5 °C 1011.4 hPa East 8 km/h 8 km/h 92% 3.3 mm 44 W/m2
10:26 1.7 °C 0.6 °C 1011.4 hPa East 9.7 km/h 11.3 km/h 92% 2.03 mm 49 W/m2
10:32 1.8 °C 0.6 °C 1011.1 hPa SE 8 km/h 12.9 km/h 92% 2.03 mm 51 W/m2
10:38 1.8 °C 0.6 °C 1011.1 hPa East 8 km/h 12.9 km/h 92% 3.3 mm 56 W/m2
10:44 1.8 °C 0.6 °C 1011.1 hPa East 8 km/h 11.3 km/h 92% 3.3 mm 60 W/m2
10:50 1.8 °C 0.7 °C 1011.1 hPa ENE 8 km/h 8 km/h 92% 2.03 mm 60 W/m2
10:56 1.8 °C 0.7 °C 1011.1 hPa East 8 km/h 12.9 km/h 92% 2.79 mm 65 W/m2
11:00 1.9 °C 0.7 °C 1010.7 hPa East 9.7 km/h 9.7 km/h 92% 2.54 mm 62 W/m2
11:06 1.9 °C 0.7 °C 1010.7 hPa ESE 8 km/h 14.5 km/h 92% 1.78 mm 72 W/m2
11:12 2 °C 0.8 °C 1010.7 hPa NE 9.7 km/h 12.9 km/h 92% 1.78 mm 74 W/m2
11:18 2.1 °C 0.9 °C 1010.7 hPa East 8 km/h 8 km/h 92% 1.78 mm 69 W/m2
11:24 2.2 °C 1 °C 1010.7 hPa NNE 4.8 km/h 12.9 km/h 92% 1.27 mm 81 W/m2
11:30 2.2 °C 1.1 °C 1010.7 hPa ESE 8 km/h 12.9 km/h 92% 0 mm 86 W/m2
11:36 2.2 °C 1.1 °C 1010.7 hPa East 8 km/h 8 km/h 92% 0 mm 79 W/m2
11:42 2.3 °C 1.2 °C 1010.7 hPa ENE 8 km/h 11.3 km/h 92% 0 mm 102 W/m2
11:48 2.4 °C 1.2 °C 1010.7 hPa SE 8 km/h 8 km/h 92% 0 mm 100 W/m2
11:54 2.4 °C 1.3 °C 1010.4 hPa East 8 km/h 9.7 km/h 92% 0 mm 98 W/m2
12:00 2.5 °C 1.3 °C 1010.4 hPa ENE 6.4 km/h 6.4 km/h 92% 0 mm 91 W/m2
12:06 2.6 °C 1.4 °C 1010.4 hPa East 6.4 km/h 8 km/h 92% 0 mm 83 W/m2
12:12 2.6 °C 1.4 °C 1010.4 hPa East 6.4 km/h 8 km/h 92% 0 mm 84 W/m2
12:18 2.6 °C 1.4 °C 1010.4 hPa East 8 km/h 9.7 km/h 92% 0 mm 88 W/m2
12:24 2.6 °C 1.4 °C 1010 hPa ENE 6.4 km/h 8 km/h 92% 0 mm 84 W/m2
12:30 2.7 °C 1.5 °C 1010 hPa ESE 4.8 km/h 4.8 km/h 92% 0 mm 84 W/m2
12:36 2.7 °C 1.5 °C 1010 hPa East 4.8 km/h 11.3 km/h 92% 0 mm 81 W/m2
12:42 2.7 °C 1.6 °C 1010 hPa ENE 6.4 km/h 8 km/h 92% 0 mm 88 W/m2
12:48 2.8 °C 1.6 °C 1010 hPa ENE 4.8 km/h 8 km/h 92% 0 mm 90 W/m2
12:54 2.8 °C 1.7 °C 1010 hPa East 4.8 km/h 11.3 km/h 92% 0 mm 100 W/m2
13:00 2.8 °C 1.7 °C 1010 hPa NE 6.4 km/h 6.4 km/h 92% 0 mm 91 W/m2
13:06 2.9 °C 1.8 °C 1009.7 hPa NE 6.4 km/h 8 km/h 92% 0 mm 86 W/m2
13:12 2.9 °C 1.8 °C 1009.7 hPa ENE 4.8 km/h 16.1 km/h 92% 0 mm 90 W/m2
13:18 2.9 °C 1.8 °C 1009.7 hPa NE 6.4 km/h 16.1 km/h 92% 0 mm 84 W/m2
13:24 2.9 °C 1.8 °C 1009.7 hPa NE 8 km/h 19.3 km/h 92% 0 mm 79 W/m2
13:30 3 °C 1.8 °C 1009.7 hPa ENE 6.4 km/h 8 km/h 92% 0 mm 76 W/m2
13:36 3 °C 1.8 °C 1009.7 hPa ENE 8 km/h 11.3 km/h 92% 0 mm 83 W/m2
13:42 3 °C 1.8 °C 1009.7 hPa East 9.7 km/h 9.7 km/h 92% 0 mm 77 W/m2
13:48 3.1 °C 1.9 °C 1009.7 hPa ENE 6.4 km/h 9.7 km/h 92% 1.02 mm 83 W/m2
13:54 3.1 °C 1.9 °C 1009.7 hPa ENE 4.8 km/h 4.8 km/h 92% 1.02 mm 79 W/m2
14:00 3.1 °C 1.9 °C 1009.4 hPa ESE 8 km/h 8 km/h 92% 1.27 mm 90 W/m2
14:06 3.1 °C 1.9 °C 1009 hPa ENE 8 km/h 19.3 km/h 92% 1.52 mm 91 W/m2
14:12 3.1 °C 1.9 °C 1009 hPa ENE 8 km/h 8 km/h 92% 1.52 mm 91 W/m2
14:18 3.1 °C 1.9 °C 1009 hPa ENE 8 km/h 16.1 km/h 92% 1.27 mm 93 W/m2
14:24 3.1 °C 1.9 °C 1009 hPa ENE 8 km/h 12.9 km/h 92% 1.27 mm 79 W/m2
14:30 3.1 °C 1.9 °C 1008.7 hPa East 9.7 km/h 9.7 km/h 92% 1.27 mm 74 W/m2
14:36 3.1 °C 1.9 °C 1008.7 hPa SE 8 km/h 12.9 km/h 92% 1.27 mm 79 W/m2
14:42 3.1 °C 1.9 °C 1008.7 hPa East 8 km/h 8 km/h 92% 1.27 mm 72 W/m2
14:48 3.1 °C 1.9 °C 1008.4 hPa NE 6.4 km/h 8 km/h 92% 1.02 mm 74 W/m2
14:54 2.9 °C 1.8 °C 1008.4 hPa ENE 8 km/h 12.9 km/h 92% 1.52 mm 77 W/m2
15:00 2.9 °C 1.8 °C 1008.4 hPa East 8 km/h 8 km/h 92% 1.52 mm 79 W/m2
15:06 2.9 °C 1.7 °C 1008 hPa NE 8 km/h 14.5 km/h 92% 1.27 mm 74 W/m2
15:12 2.9 °C 1.7 °C 1008 hPa ENE 8 km/h 11.3 km/h 92% 1.27 mm 65 W/m2
15:18 2.9 °C 1.7 °C 1008 hPa SE 8 km/h 11.3 km/h 92% 1.52 mm 70 W/m2
15:24 2.8 °C 1.7 °C 1008 hPa ENE 8 km/h 19.3 km/h 92% 1.52 mm 69 W/m2
15:30 2.8 °C 1.7 °C 1007.7 hPa East 9.7 km/h 9.7 km/h 92% 1.27 mm 60 W/m2
15:36 2.8 °C 1.7 °C 1007.7 hPa SE 8 km/h 14.5 km/h 92% 1.27 mm 54 W/m2
15:42 2.8 °C 1.6 °C 1007.7 hPa ENE 9.7 km/h 11.3 km/h 92% 1.78 mm 62 W/m2
15:48 2.8 °C 1.7 °C 1007.7 hPa ENE 8 km/h 11.3 km/h 92% 1.52 mm 58 W/m2
15:54 2.8 °C 1.7 °C 1007.7 hPa East 8 km/h 14.5 km/h 92% 1.52 mm 54 W/m2
16:00 2.8 °C 1.7 °C 1007.7 hPa East 8 km/h 11.3 km/h 92% 1.78 mm 54 W/m2
16:06 2.8 °C 1.6 °C 1007.3 hPa ENE 9.7 km/h 14.5 km/h 92% 1.27 mm 56 W/m2
16:12 2.8 °C 1.6 °C 1007.3 hPa ENE 9.7 km/h 14.5 km/h 92% 1.27 mm 62 W/m2
16:18 2.8 °C 1.6 °C 1007.3 hPa ENE 9.7 km/h 14.5 km/h 92% 2.29 mm 60 W/m2
16:24 2.8 °C 1.6 °C 1007.3 hPa ENE 8 km/h 9.7 km/h 92% 1.78 mm 58 W/m2
16:30 2.8 °C 1.6 °C 1007.3 hPa ENE 8 km/h 11.3 km/h 92% 1.78 mm 56 W/m2
16:36 2.7 °C 1.6 °C 1007.3 hPa ESE 8 km/h 12.9 km/h 92% 1.52 mm 51 W/m2
16:42 2.7 °C 1.6 °C 1007.3 hPa East 8 km/h 9.7 km/h 92% 1.52 mm 58 W/m2
16:48 2.7 °C 1.5 °C 1007.3 hPa ENE 9.7 km/h 11.3 km/h 92% 1.02 mm 62 W/m2
16:54 2.7 °C 1.5 °C 1007.3 hPa East 9.7 km/h 9.7 km/h 92% 1.02 mm 46 W/m2
17:00 2.6 °C 1.4 °C 1007 hPa SE 9.7 km/h 9.7 km/h 92% 1.52 mm 39 W/m2
17:06 2.6 °C 1.4 °C 1007.3 hPa ENE 9.7 km/h 11.3 km/h 92% 1.52 mm 26 W/m2
17:12 2.6 °C 1.4 °C 1007.3 hPa SSE 6.4 km/h 8 km/h 92% 1.02 mm 25 W/m2
17:18 2.6 °C 1.4 °C 1007.3 hPa SE 8 km/h 16.1 km/h 92% 0 mm 25 W/m2
17:24 2.6 °C 1.4 °C 1007.3 hPa ENE 8 km/h 16.1 km/h 92% 0 mm 23 W/m2
17:30 2.5 °C 1.3 °C 1007 hPa NE 8 km/h 8 km/h 92% 0 mm 25 W/m2
17:36 2.5 °C 1.3 °C 1007 hPa NNE 4.8 km/h 8 km/h 92% 0 mm 25 W/m2
17:42 2.4 °C 1.3 °C 1007 hPa East 6.4 km/h 11.3 km/h 92% 0 mm 19 W/m2
17:48 2.4 °C 1.3 °C 1007 hPa East 6.4 km/h 12.9 km/h 92% 1.02 mm 25 W/m2
17:54 2.4 °C 1.3 °C 1007 hPa East 6.4 km/h 9.7 km/h 92% 1.78 mm 26 W/m2
18:00 2.4 °C 1.3 °C 1007 hPa NE 6.4 km/h 6.4 km/h 92% 2.54 mm 21 W/m2
18:06 2.4 °C 1.1 °C 1007 hPa East 6.4 km/h 9.7 km/h 91% 2.29 mm 16 W/m2
18:12 2.4 °C 1.2 °C 1007 hPa East 8 km/h 11.3 km/h 92% 3.05 mm 18 W/m2
18:18 2.4 °C 1.2 °C 1007 hPa East 8 km/h 12.9 km/h 92% 2.29 mm 18 W/m2
18:24 2.4 °C 1.2 °C 1007 hPa SE 9.7 km/h 11.3 km/h 92% 2.03 mm 14 W/m2
18:30 2.4 °C 1.2 °C 1007.3 hPa NE 8 km/h 11.3 km/h 92% 1.27 mm 12 W/m2
18:36 2.3 °C 1.2 °C 1007 hPa NE 6.4 km/h 11.3 km/h 92% 1.02 mm 11 W/m2
18:42 2.3 °C 1.2 °C 1007 hPa ENE 8 km/h 8 km/h 92% 1.02 mm 9 W/m2
18:48 2.3 °C 1.1 °C 1007 hPa NE 8 km/h 9.7 km/h 92% 0 mm 11 W/m2
18:54 2.3 °C 1.1 °C 1007 hPa ENE 8 km/h 12.9 km/h 92% 0 mm 9 W/m2
19:00 2.3 °C 1.1 °C 1007.3 hPa East 8 km/h 9.7 km/h 92% 0 mm 5 W/m2
19:06 2.3 °C 1.1 °C 1007.3 hPa NE 8 km/h 9.7 km/h 92% 1.02 mm 0 W/m2
19:12 2.3 °C 1.1 °C 1007.3 hPa NE 8 km/h 11.3 km/h 92% 1.02 mm 0 W/m2
19:18 2.2 °C 1.1 °C 1007.3 hPa ESE 9.7 km/h 11.3 km/h 92% 1.02 mm 0 W/m2
19:24 2.2 °C 1.1 °C 1007.3 hPa East 8 km/h 9.7 km/h 92% 1.27 mm 0 W/m2
19:30 2.2 °C 1 °C 1007.3 hPa East 8 km/h 11.3 km/h 92% 2.29 mm 0 W/m2
19:36 2.2 °C 1 °C 1007.3 hPa East 8 km/h 16.1 km/h 92% 2.03 mm 0 W/m2
19:42 2.2 °C 1 °C 1007.3 hPa East 9.7 km/h 11.3 km/h 92% 2.03 mm 0 W/m2
19:48 2.2 °C 1 °C 1007.3 hPa ESE 9.7 km/h 11.3 km/h 92% 1.78 mm 0 W/m2
19:54 2.2 °C 0.8 °C 1007.3 hPa ENE 9.7 km/h 9.7 km/h 91% 1.52 mm 0 W/m2
20:00 2.1 °C 0.9 °C 1007.3 hPa East 9.7 km/h 9.7 km/h 92% 2.29 mm 0 W/m2
20:06 2.1 °C 0.9 °C 1007.7 hPa East 8 km/h 14.5 km/h 92% 1.78 mm 0 W/m2
20:12 2.1 °C 0.9 °C 1007.7 hPa SE 9.7 km/h 16.1 km/h 92% 1.78 mm 0 W/m2
20:18 2.1 °C 0.9 °C 1007.7 hPa ENE 8 km/h 16.1 km/h 92% 1.52 mm 0 W/m2
20:24 2.1 °C 0.9 °C 1007.7 hPa NNE 8 km/h 19.3 km/h 92% 1.52 mm 0 W/m2
20:30 2.1 °C 0.9 °C 1007.7 hPa ENE 8 km/h 14.5 km/h 92% 1.02 mm 0 W/m2
20:36 2.1 °C 0.9 °C 1007.7 hPa East 8 km/h 14.5 km/h 92% 0 mm 0 W/m2
20:42 2.1 °C 0.9 °C 1007.7 hPa NE 8 km/h 8 km/h 92% 0 mm 0 W/m2
20:48 2.1 °C 0.9 °C 1007.7 hPa ENE 9.7 km/h 20.9 km/h 92% 0 mm 0 W/m2
20:54 2 °C 0.8 °C 1007.7 hPa ENE 8 km/h 11.3 km/h 92% 0 mm 0 W/m2
21:00 2 °C 0.8 °C 1007.7 hPa ESE 8 km/h 16.1 km/h 92% 0 mm 0 W/m2
21:06 2 °C 0.8 °C 1008 hPa East 8 km/h 16.1 km/h 92% 0 mm 0 W/m2
21:12 2 °C 0.8 °C 1008 hPa ESE 6.4 km/h 9.7 km/h 92% 1.52 mm 0 W/m2
21:18 2 °C 0.8 °C 1008 hPa ENE 6.4 km/h 16.1 km/h 92% 1.52 mm 0 W/m2
21:24 2 °C 0.7 °C 1008 hPa East 8 km/h 16.1 km/h 91% 1.02 mm 0 W/m2
21:30 2 °C 0.7 °C 1008 hPa East 8 km/h 8 km/h 91% 0 mm 0 W/m2
21:36 1.9 °C 0.8 °C 1008 hPa SSE 8 km/h 9.7 km/h 92% 0 mm 0 W/m2
21:42 1.9 °C 0.8 °C 1008 hPa East 8 km/h 8 km/h 92% 0 mm 0 W/m2
21:48 1.9 °C 0.8 °C 1008 hPa NE 8 km/h 12.9 km/h 92% 0 mm 0 W/m2
21:54 1.9 °C 0.8 °C 1008 hPa ENE 8 km/h 11.3 km/h 92% 0 mm 0 W/m2
22:00 1.9 °C 0.7 °C 1008 hPa SE 6.4 km/h 11.3 km/h 92% 0 mm 0 W/m2
22:06 1.9 °C 0.7 °C 1008 hPa ESE 8 km/h 11.3 km/h 92% 0 mm 0 W/m2
22:12 1.8 °C 0.7 °C 1008 hPa ESE 8 km/h 9.7 km/h 92% 0 mm 0 W/m2
22:18 1.8 °C 0.4 °C 1008 hPa East 6.4 km/h 9.7 km/h 91% 0 mm 0 W/m2
22:24 1.7 °C 0.3 °C 1007.7 hPa NE 6.4 km/h 14.5 km/h 91% 0 mm 0 W/m2
22:30 1.6 °C 0.3 °C 1008 hPa East 8 km/h 8 km/h 91% 0 mm 0 W/m2
22:36 1.6 °C 0.2 °C 1007.7 hPa East 6.4 km/h 12.9 km/h 91% 1.27 mm 0 W/m2
22:42 1.4 °C 0.1 °C 1007.7 hPa ENE 8 km/h 8 km/h 91% 1.27 mm 0 W/m2
22:48 1.4 °C 0.1 °C 1007.7 hPa ESE 4.8 km/h 11.3 km/h 91% 1.02 mm 0 W/m2
22:54 1.3 °C 0 °C 1007.7 hPa ESE 6.4 km/h 8 km/h 91% 1.02 mm 0 W/m2
23:00 1.3 °C 0.2 °C 1007.7 hPa ESE 6.4 km/h 6.4 km/h 92% 1.02 mm 0 W/m2
23:06 1.4 °C 0.2 °C 1007.7 hPa ENE 6.4 km/h 8 km/h 92% 1.02 mm 0 W/m2
23:12 1.3 °C 0.2 °C 1007.7 hPa ENE 6.4 km/h 6.4 km/h 92% 1.02 mm 0 W/m2
23:18 1.4 °C 0.2 °C 1007.7 hPa NE 4.8 km/h 6.4 km/h 92% 1.02 mm 0 W/m2
23:24 1.4 °C 0.3 °C 1007.7 hPa East 4.8 km/h 11.3 km/h 92% 0 mm 0 W/m2
23:30 1.5 °C 0.3 °C 1007.7 hPa ENE 6.4 km/h 17.7 km/h 92% 0 mm 0 W/m2
23:36 1.6 °C 0.4 °C 1007.7 hPa ESE 6.4 km/h 17.7 km/h 92% 0 mm 0 W/m2
23:42 1.6 °C 0.4 °C 1007.3 hPa East 6.4 km/h 9.7 km/h 92% 0 mm 0 W/m2
23:48 1.6 °C 0.4 °C 1007.3 hPa ENE 6.4 km/h 12.9 km/h 92% 0 mm 0 W/m2
23:54 1.6 °C 0.2 °C 1007.3 hPa ENE 6.4 km/h 8 km/h 91% 0 mm 0 W/m2
Country Meadow, Clay, NY, USA
Compliments of Weather Underground - 2 mb